createdAt,value
2023-04-10T00:04:00.693Z,2.70
2023-04-10T00:09:04.408Z,2.92
2023-04-10T00:14:07.673Z,3.60
2023-04-10T00:19:12.821Z,3.13
2023-04-10T00:24:16.593Z,3.83
2023-04-10T00:29:20.206Z,3.78
2023-04-10T00:34:25.260Z,3.80
2023-04-10T00:39:28.717Z,3.58
2023-04-10T00:44:32.279Z,2.70
2023-04-10T00:49:37.140Z,3.78
2023-04-10T00:54:41.149Z,3.50
2023-04-10T00:59:44.486Z,4.15
2023-04-10T01:04:49.608Z,3.88
2023-04-10T01:10:00.458Z,3.40
2023-04-10T01:15:10.926Z,3.70
2023-04-10T01:20:20.734Z,3.45
2023-04-10T01:25:41.577Z,3.53
2023-04-10T01:30:48.702Z,3.50
2023-04-10T01:35:56.418Z,3.72
2023-04-10T01:41:01.344Z,4.05
2023-04-10T01:46:06.971Z,4.18
2023-04-10T01:51:12.121Z,4.82
2023-04-10T01:56:16.029Z,4.40
2023-04-10T02:01:29.798Z,4.35
2023-04-10T02:06:45.036Z,4.70
2023-04-10T02:12:00.200Z,4.43
2023-04-10T02:22:08.837Z,4.27
2023-04-10T02:27:11.989Z,4.15
2023-04-10T02:32:17.488Z,4.53
2023-04-10T02:37:20.752Z,4.30
2023-04-10T02:42:24.055Z,3.97
2023-04-10T02:47:28.692Z,3.30
2023-04-10T02:52:31.855Z,3.95
2023-04-10T02:57:36.391Z,3.00
2023-04-10T03:02:41.071Z,3.15
2023-04-10T03:07:44.300Z,3.55
2023-04-10T03:12:48.892Z,3.05
2023-04-10T03:17:53.590Z,3.50
2023-04-10T03:22:56.877Z,3.58
2023-04-10T03:27:59.995Z,3.50
2023-04-10T03:33:04.684Z,3.50
2023-04-10T03:38:07.862Z,3.30
2023-04-10T03:43:11.088Z,3.53
2023-04-10T03:48:15.797Z,4.28
2023-04-10T03:53:18.962Z,4.78
2023-04-10T03:58:22.080Z,4.40
2023-04-10T04:03:26.879Z,4.68
2023-04-10T04:08:30.196Z,4.70
2023-04-10T04:13:33.416Z,4.53
2023-04-10T04:18:37.976Z,4.97
2023-04-10T04:23:41.128Z,4.38
2023-04-10T04:28:44.238Z,4.63
2023-04-10T04:33:48.792Z,3.90
2023-04-10T04:38:51.902Z,4.00
2023-04-10T04:43:55.944Z,4.28
2023-04-10T04:49:00.888Z,4.33
2023-04-10T04:54:04.032Z,4.35
2023-04-10T04:59:07.194Z,4.18
2023-04-10T05:04:11.956Z,4.03
2023-04-10T05:09:15.191Z,4.25
2023-04-10T05:14:18.385Z,4.25
2023-04-10T05:19:23.020Z,4.90
2023-04-10T05:24:26.248Z,4.72
2023-04-10T05:29:29.541Z,4.32
2023-04-10T05:34:34.165Z,4.47
2023-04-10T05:39:37.391Z,4.55
2023-04-10T05:44:40.644Z,3.33
2023-04-10T05:49:45.491Z,3.25
2023-04-10T05:54:48.760Z,3.25
2023-04-10T05:59:52.061Z,3.40
2023-04-10T06:04:57.067Z,3.63
2023-04-10T06:10:00.608Z,2.67
2023-04-10T06:15:04.121Z,3.00
2023-04-10T06:20:10.789Z,3.08
2023-04-10T06:25:14.105Z,3.05
2023-04-10T06:30:17.320Z,2.85
2023-04-10T06:35:22.842Z,2.88
2023-04-10T06:40:26.168Z,3.33
2023-04-10T06:45:29.446Z,2.92
2023-04-10T06:50:34.097Z,2.83
2023-04-10T06:55:37.801Z,2.35
2023-04-10T07:00:41.129Z,2.50
2023-04-10T07:05:45.877Z,2.25
2023-04-10T07:10:49.109Z,2.28
2023-04-10T07:15:52.512Z,2.03
2023-04-10T07:20:57.243Z,1.77
2023-04-10T07:31:03.625Z,2.10
2023-04-10T07:36:09.591Z,1.83
2023-04-10T07:41:13.363Z,1.65
2023-04-10T07:46:17.665Z,1.93
2023-04-10T07:51:22.456Z,1.73
2023-04-10T07:56:25.761Z,1.92
2023-04-10T08:01:29.203Z,1.88
2023-04-10T08:06:34.135Z,1.93
2023-04-10T08:11:38.699Z,2.03
2023-04-10T08:16:42.141Z,2.10
2023-04-10T08:21:46.813Z,2.03
2023-04-10T08:26:50.066Z,2.10
2023-04-10T08:31:54.755Z,2.30
2023-04-10T08:36:59.846Z,2.33
2023-04-10T08:42:03.688Z,2.47
2023-04-10T08:47:07.785Z,2.33
2023-04-10T08:52:17.238Z,2.10
2023-04-10T08:57:22.582Z,2.05
2023-04-10T09:02:26.234Z,2.58
2023-04-10T09:12:45.123Z,2.10
2023-04-10T09:23:03.082Z,4.78
2023-04-10T09:28:07.898Z,2.72
2023-04-10T09:33:23.851Z,2.00
2023-04-10T09:38:28.454Z,1.70
2023-04-10T09:43:31.636Z,3.08
2023-04-10T09:48:34.894Z,1.75
2023-04-10T09:53:51.179Z,1.50
2023-04-10T09:58:58.185Z,1.60
2023-04-10T10:04:03.336Z,1.13
2023-04-10T10:09:08.004Z,1.60
2023-04-10T10:14:18.187Z,1.60
2023-04-10T10:19:28.521Z,3.80
2023-04-10T10:24:34.897Z,1.40
2023-04-10T10:29:42.106Z,1.73
2023-04-10T10:34:48.372Z,1.85
2023-04-10T10:40:01.704Z,1.60
2023-04-10T10:45:12.923Z,1.35
2023-04-10T10:50:16.160Z,1.00
2023-04-10T10:55:39.391Z,1.17
2023-04-10T11:01:13.682Z,0.90
2023-04-10T11:06:19.926Z,0.90
2023-04-10T11:11:28.090Z,1.10
2023-04-10T11:16:47.397Z,1.08
2023-04-10T11:22:08.920Z,1.08
2023-04-10T11:27:49.385Z,1.10
2023-04-10T11:32:56.800Z,1.05
2023-04-10T11:38:20.728Z,1.20
2023-04-10T11:43:27.469Z,0.98
2023-04-10T11:48:34.611Z,1.20
2023-04-10T11:53:38.791Z,1.50
2023-04-10T11:58:54.035Z,1.33
2023-04-10T12:03:58.811Z,1.20
2023-04-10T12:09:04.843Z,1.20
2023-04-10T12:14:12.116Z,1.27
2023-04-10T12:19:19.318Z,1.40
2023-04-10T12:24:45.643Z,1.73
2023-04-10T12:29:54.889Z,1.65
2023-04-10T12:35:02.292Z,1.63
2023-04-10T12:40:10.470Z,1.58
2023-04-10T12:45:19.552Z,1.45
2023-04-10T12:50:24.097Z,1.60
2023-04-10T12:55:29.163Z,1.50
2023-04-10T13:00:35.480Z,1.60
2023-04-10T13:05:39.437Z,1.60
2023-04-10T13:10:44.800Z,1.67
2023-04-10T13:15:52.335Z,1.70
2023-04-10T13:20:56.416Z,1.75
2023-04-10T13:26:00.770Z,1.70
2023-04-10T13:31:06.330Z,1.30
2023-04-10T13:36:11.374Z,1.67
2023-04-10T13:41:15.530Z,1.70
2023-04-10T13:51:25.186Z,1.80
2023-04-10T13:56:31.358Z,1.63
2023-04-10T14:01:38.982Z,1.30
2023-04-10T14:06:43.211Z,1.65
2023-04-10T14:11:46.360Z,1.20
2023-04-10T14:16:52.831Z,1.27
2023-04-10T14:21:56.980Z,1.35
2023-04-10T14:32:08.612Z,1.42
2023-04-10T14:37:15.268Z,1.30
2023-04-10T14:42:20.055Z,1.40
2023-04-10T14:47:26.587Z,1.80
2023-04-10T14:52:29.733Z,1.70
2023-04-10T14:57:32.890Z,1.75
2023-04-10T15:02:38.576Z,1.83
2023-04-10T15:07:41.802Z,1.60
2023-04-10T15:12:44.954Z,1.80
2023-04-10T15:17:49.638Z,1.70
2023-04-10T15:22:52.773Z,1.65
2023-04-10T15:27:56.482Z,1.77
2023-04-10T15:33:01.389Z,1.60
2023-04-10T15:38:04.569Z,1.42
2023-04-10T15:43:07.695Z,1.50
2023-04-10T15:48:12.229Z,1.60
2023-04-10T15:53:15.608Z,1.60
2023-04-10T15:58:19.102Z,1.67
2023-04-10T16:03:23.811Z,1.60
2023-04-10T16:08:27.571Z,1.65
2023-04-10T16:13:30.779Z,1.40
2023-04-10T16:18:35.479Z,1.45
2023-04-10T16:23:38.711Z,1.58
2023-04-10T16:28:41.820Z,1.80
2023-04-10T16:33:46.445Z,1.80
2023-04-10T16:38:50.464Z,2.00
2023-04-10T16:43:53.762Z,1.60
2023-04-10T16:48:58.274Z,2.10
2023-04-10T16:54:01.439Z,1.60
2023-04-10T16:59:04.591Z,1.80
2023-04-10T17:04:09.398Z,1.70
2023-04-10T17:09:12.694Z,1.73
2023-04-10T17:14:16.220Z,1.83
2023-04-10T17:19:20.828Z,1.50
2023-04-10T17:24:24.066Z,1.70
2023-04-10T17:29:27.200Z,1.67
2023-04-10T17:34:31.778Z,1.50
2023-04-10T17:39:34.923Z,1.90
2023-04-10T17:44:38.056Z,1.85
2023-04-10T17:49:42.591Z,1.90
2023-04-10T17:54:45.738Z,1.95
2023-04-10T17:59:49.824Z,1.67
2023-04-10T18:04:54.380Z,1.67
2023-04-10T18:09:57.571Z,1.80
2023-04-10T18:15:00.818Z,1.50
2023-04-10T18:20:05.845Z,1.60
2023-04-10T18:25:09.932Z,1.52
2023-04-10T18:30:13.891Z,1.50
2023-04-10T18:35:18.682Z,1.80
2023-04-10T18:40:22.372Z,1.38
2023-04-10T18:45:25.479Z,1.73
2023-04-10T18:50:30.092Z,2.00
2023-04-10T19:00:36.247Z,1.90
2023-04-10T19:05:40.833Z,2.08
2023-04-10T19:15:48.350Z,1.90
2023-04-10T19:20:53.055Z,2.33
2023-04-10T19:25:56.458Z,2.00
2023-04-10T19:30:59.682Z,2.00
2023-04-10T19:41:14.842Z,2.17
2023-04-10T19:46:18.755Z,1.77
2023-04-10T19:51:23.638Z,1.47
2023-04-10T19:56:28.646Z,2.08
2023-04-10T20:01:31.802Z,1.90
2023-04-10T20:06:36.391Z,1.80
2023-04-10T20:16:42.487Z,2.00
2023-04-10T20:21:47.045Z,2.15
2023-04-10T20:26:50.183Z,1.85
2023-04-10T20:31:53.472Z,1.92
2023-04-10T20:36:58.013Z,1.80
2023-04-10T20:42:01.482Z,1.80
2023-04-10T20:47:05.751Z,2.10
2023-04-10T20:52:10.447Z,2.40
2023-04-10T21:02:18.160Z,2.53
2023-04-10T21:07:22.779Z,2.28
2023-04-10T21:12:25.933Z,2.08
2023-04-10T21:17:31.567Z,2.55
2023-04-10T21:22:36.388Z,2.60
2023-04-10T21:32:42.419Z,2.72
2023-04-10T21:37:47.016Z,2.47
2023-04-10T21:42:50.145Z,2.22
2023-04-10T21:47:53.296Z,2.45
2023-04-10T21:52:57.830Z,2.53
2023-04-10T21:58:00.970Z,2.70
2023-04-10T22:03:04.179Z,2.45
2023-04-10T22:08:08.975Z,2.40
2023-04-10T22:18:26.803Z,2.42
2023-04-10T22:23:31.404Z,2.70
2023-04-10T22:28:34.549Z,2.38
2023-04-10T22:33:38.067Z,2.72
2023-04-10T22:38:42.625Z,2.97
2023-04-10T22:43:45.791Z,2.10
2023-04-10T22:48:48.898Z,2.45
2023-04-10T22:53:53.479Z,2.70
2023-04-10T22:58:56.877Z,2.60
2023-04-10T23:04:00.255Z,2.92
2023-04-10T23:09:04.856Z,2.60
2023-04-10T23:14:08.066Z,2.97
2023-04-10T23:19:11.224Z,2.80
2023-04-10T23:24:15.767Z,2.67
2023-04-10T23:29:18.881Z,2.40
2023-04-10T23:34:22.035Z,2.58
2023-04-10T23:39:26.589Z,3.00
2023-04-10T23:44:29.753Z,2.63
2023-04-10T23:49:34.933Z,2.42
2023-04-10T23:54:39.966Z,2.67
2023-04-10T23:59:43.097Z,2.35
